sensor_id;sensor_type;location;lat;lon;timestamp;P1;durP1;ratioP1;P2;durP2;ratioP2
52898;SDS011;38763;53.096;6.062;2023-08-31T00:02:06;5.88;;;1.63;;
52898;SDS011;38763;53.096;6.062;2023-08-31T00:04:32;3.55;;;1.35;;
52898;SDS011;38763;53.096;6.062;2023-08-31T00:06:58;4.68;;;1.30;;
52898;SDS011;38763;53.096;6.062;2023-08-31T00:09:24;7.40;;;1.50;;
52898;SDS011;38763;53.096;6.062;2023-08-31T00:11:50;4.00;;;1.35;;
52898;SDS011;38763;53.096;6.062;2023-08-31T00:14:16;4.55;;;1.27;;
52898;SDS011;38763;53.096;6.062;2023-08-31T00:16:42;2.70;;;1.40;;
52898;SDS011;38763;53.096;6.062;2023-08-31T00:19:11;4.13;;;1.35;;
52898;SDS011;38763;53.096;6.062;2023-08-31T00:21:37;7.80;;;1.55;;
52898;SDS011;38763;53.096;6.062;2023-08-31T00:24:03;3.65;;;1.27;;
52898;SDS011;38763;53.096;6.062;2023-08-31T00:26:29;3.55;;;1.58;;
52898;SDS011;38763;53.096;6.062;2023-08-31T00:28:56;3.22;;;0.90;;
52898;SDS011;38763;53.096;6.062;2023-08-31T00:31:23;2.80;;;1.20;;
52898;SDS011;38763;53.096;6.062;2023-08-31T00:33:49;4.53;;;1.20;;
52898;SDS011;38763;53.096;6.062;2023-08-31T00:36:14;3.13;;;1.00;;
52898;SDS011;38763;53.096;6.062;2023-08-31T00:38:41;3.20;;;1.13;;
52898;SDS011;38763;53.096;6.062;2023-08-31T00:41:06;2.75;;;0.75;;
52898;SDS011;38763;53.096;6.062;2023-08-31T00:43:32;4.32;;;1.05;;
52898;SDS011;38763;53.096;6.062;2023-08-31T00:45:58;2.58;;;0.90;;
52898;SDS011;38763;53.096;6.062;2023-08-31T00:48:24;3.40;;;1.13;;
52898;SDS011;38763;53.096;6.062;2023-08-31T00:50:50;3.10;;;0.85;;
52898;SDS011;38763;53.096;6.062;2023-08-31T00:53:16;3.40;;;1.00;;
52898;SDS011;38763;53.096;6.062;2023-08-31T00:55:46;2.47;;;0.95;;
52898;SDS011;38763;53.096;6.062;2023-08-31T00:58:12;3.08;;;1.10;;
52898;SDS011;38763;53.096;6.062;2023-08-31T01:12:46;3.42;;;0.90;;
52898;SDS011;38763;53.096;6.062;2023-08-31T01:15:15;3.45;;;0.90;;
52898;SDS011;38763;53.096;6.062;2023-08-31T01:17:49;3.78;;;1.00;;
52898;SDS011;38763;53.096;6.062;2023-08-31T01:20:19;1.80;;;0.70;;
52898;SDS011;38763;53.096;6.062;2023-08-31T01:23:02;3.42;;;0.90;;
52898;SDS011;38763;53.096;6.062;2023-08-31T01:25:31;3.20;;;0.80;;
52898;SDS011;38763;53.096;6.062;2023-08-31T01:28:00;3.55;;;0.80;;
52898;SDS011;38763;53.096;6.062;2023-08-31T01:30:30;4.57;;;0.75;;
52898;SDS011;38763;53.096;6.062;2023-08-31T01:32:56;1.92;;;0.80;;
52898;SDS011;38763;53.096;6.062;2023-08-31T01:35:22;2.05;;;0.70;;
52898;SDS011;38763;53.096;6.062;2023-08-31T01:37:58;2.22;;;0.80;;
52898;SDS011;38763;53.096;6.062;2023-08-31T01:40:34;2.97;;;0.80;;
52898;SDS011;38763;53.096;6.062;2023-08-31T01:43:08;2.83;;;0.70;;
52898;SDS011;38763;53.096;6.062;2023-08-31T01:45:36;2.33;;;0.77;;
52898;SDS011;38763;53.096;6.062;2023-08-31T01:48:03;3.78;;;0.80;;
52898;SDS011;38763;53.096;6.062;2023-08-31T01:50:29;3.45;;;0.80;;
52898;SDS011;38763;53.096;6.062;2023-08-31T01:52:55;3.60;;;1.00;;
52898;SDS011;38763;53.096;6.062;2023-08-31T01:55:21;1.73;;;0.80;;
52898;SDS011;38763;53.096;6.062;2023-08-31T01:57:47;3.78;;;0.88;;
52898;SDS011;38763;53.096;6.062;2023-08-31T02:00:13;3.15;;;0.77;;
52898;SDS011;38763;53.096;6.062;2023-08-31T02:02:41;2.25;;;0.80;;
52898;SDS011;38763;53.096;6.062;2023-08-31T02:05:07;2.40;;;0.68;;
52898;SDS011;38763;53.096;6.062;2023-08-31T02:07:33;2.30;;;0.80;;
52898;SDS011;38763;53.096;6.062;2023-08-31T02:09:59;3.35;;;0.95;;
52898;SDS011;38763;53.096;6.062;2023-08-31T02:12:25;2.90;;;1.08;;
52898;SDS011;38763;53.096;6.062;2023-08-31T02:14:50;2.95;;;0.82;;
52898;SDS011;38763;53.096;6.062;2023-08-31T02:17:16;5.07;;;1.08;;
52898;SDS011;38763;53.096;6.062;2023-08-31T02:19:42;2.40;;;0.90;;
52898;SDS011;38763;53.096;6.062;2023-08-31T02:22:07;2.38;;;0.90;;
52898;SDS011;38763;53.096;6.062;2023-08-31T02:24:33;2.55;;;0.80;;
52898;SDS011;38763;53.096;6.062;2023-08-31T02:26:59;4.95;;;1.30;;
52898;SDS011;38763;53.096;6.062;2023-08-31T02:29:24;2.97;;;1.05;;
52898;SDS011;38763;53.096;6.062;2023-08-31T02:31:50;3.08;;;1.10;;
52898;SDS011;38763;53.096;6.062;2023-08-31T02:34:16;4.07;;;1.13;;
52898;SDS011;38763;53.096;6.062;2023-08-31T02:36:41;1.92;;;0.95;;
52898;SDS011;38763;53.096;6.062;2023-08-31T02:39:07;3.97;;;1.20;;
52898;SDS011;38763;53.096;6.062;2023-08-31T02:41:32;5.20;;;1.10;;
52898;SDS011;38763;53.096;6.062;2023-08-31T02:43:58;2.75;;;1.00;;
52898;SDS011;38763;53.096;6.062;2023-08-31T02:46:24;3.35;;;1.00;;
52898;SDS011;38763;53.096;6.062;2023-08-31T02:48:49;3.53;;;1.05;;
52898;SDS011;38763;53.096;6.062;2023-08-31T02:51:15;2.95;;;1.00;;
52898;SDS011;38763;53.096;6.062;2023-08-31T02:53:41;3.95;;;1.33;;
52898;SDS011;38763;53.096;6.062;2023-08-31T02:56:06;3.75;;;1.10;;
52898;SDS011;38763;53.096;6.062;2023-08-31T02:58:32;4.78;;;1.25;;
52898;SDS011;38763;53.096;6.062;2023-08-31T03:01:13;3.15;;;1.10;;
52898;SDS011;38763;53.096;6.062;2023-08-31T03:03:39;5.53;;;1.25;;
52898;SDS011;38763;53.096;6.062;2023-08-31T03:06:09;4.07;;;1.20;;
52898;SDS011;38763;53.096;6.062;2023-08-31T03:08:35;3.80;;;1.50;;
52898;SDS011;38763;53.096;6.062;2023-08-31T03:11:02;4.68;;;1.48;;
52898;SDS011;38763;53.096;6.062;2023-08-31T03:13:28;3.60;;;1.23;;
52898;SDS011;38763;53.096;6.062;2023-08-31T03:15:54;4.32;;;1.50;;
52898;SDS011;38763;53.096;6.062;2023-08-31T03:18:21;5.50;;;1.50;;
52898;SDS011;38763;53.096;6.062;2023-08-31T03:20:47;5.85;;;1.55;;
52898;SDS011;38763;53.096;6.062;2023-08-31T03:23:12;4.38;;;1.48;;
52898;SDS011;38763;53.096;6.062;2023-08-31T03:25:38;5.18;;;1.60;;
52898;SDS011;38763;53.096;6.062;2023-08-31T03:28:04;5.35;;;1.45;;
52898;SDS011;38763;53.096;6.062;2023-08-31T03:30:29;3.83;;;1.55;;
52898;SDS011;38763;53.096;6.062;2023-08-31T03:32:55;5.97;;;1.48;;
52898;SDS011;38763;53.096;6.062;2023-08-31T03:35:21;9.23;;;1.42;;
52898;SDS011;38763;53.096;6.062;2023-08-31T03:37:51;5.65;;;1.90;;
52898;SDS011;38763;53.096;6.062;2023-08-31T03:40:17;7.07;;;1.45;;
52898;SDS011;38763;53.096;6.062;2023-08-31T03:42:43;4.25;;;1.23;;
52898;SDS011;38763;53.096;6.062;2023-08-31T03:45:09;4.70;;;1.70;;
52898;SDS011;38763;53.096;6.062;2023-08-31T03:47:34;4.38;;;1.60;;
52898;SDS011;38763;53.096;6.062;2023-08-31T03:50:00;7.68;;;1.50;;
52898;SDS011;38763;53.096;6.062;2023-08-31T03:52:26;6.63;;;2.00;;
52898;SDS011;38763;53.096;6.062;2023-08-31T03:54:51;5.97;;;1.40;;
52898;SDS011;38763;53.096;6.062;2023-08-31T03:57:20;3.47;;;1.40;;
52898;SDS011;38763;53.096;6.062;2023-08-31T03:59:46;6.65;;;1.60;;
52898;SDS011;38763;53.096;6.062;2023-08-31T04:02:11;8.65;;;1.58;;
52898;SDS011;38763;53.096;6.062;2023-08-31T04:04:37;3.05;;;1.23;;
52898;SDS011;38763;53.096;6.062;2023-08-31T04:07:03;4.60;;;1.40;;
52898;SDS011;38763;53.096;6.062;2023-08-31T04:09:28;5.47;;;1.60;;
52898;SDS011;38763;53.096;6.062;2023-08-31T04:11:55;6.47;;;1.70;;
52898;SDS011;38763;53.096;6.062;2023-08-31T04:14:20;7.80;;;1.60;;
52898;SDS011;38763;53.096;6.062;2023-08-31T04:16:46;4.63;;;1.60;;
52898;SDS011;38763;53.096;6.062;2023-08-31T04:19:15;5.60;;;1.63;;
52898;SDS011;38763;53.096;6.062;2023-08-31T04:21:42;6.43;;;1.85;;
52898;SDS011;38763;53.096;6.062;2023-08-31T04:24:08;5.07;;;1.65;;
52898;SDS011;38763;53.096;6.062;2023-08-31T04:26:33;7.70;;;1.60;;
52898;SDS011;38763;53.096;6.062;2023-08-31T04:28:59;6.07;;;1.52;;
52898;SDS011;38763;53.096;6.062;2023-08-31T04:31:25;4.82;;;1.90;;
52898;SDS011;38763;53.096;6.062;2023-08-31T04:33:50;8.23;;;2.10;;
52898;SDS011;38763;53.096;6.062;2023-08-31T04:36:19;7.65;;;2.00;;
52898;SDS011;38763;53.096;6.062;2023-08-31T04:38:45;6.50;;;1.60;;
52898;SDS011;38763;53.096;6.062;2023-08-31T04:41:14;4.70;;;1.70;;
52898;SDS011;38763;53.096;6.062;2023-08-31T04:43:40;8.77;;;1.85;;
52898;SDS011;38763;53.096;6.062;2023-08-31T04:46:06;6.65;;;1.92;;
52898;SDS011;38763;53.096;6.062;2023-08-31T04:48:31;4.90;;;1.73;;
52898;SDS011;38763;53.096;6.062;2023-08-31T04:50:58;5.93;;;1.95;;
52898;SDS011;38763;53.096;6.062;2023-08-31T04:53:24;5.40;;;1.70;;
52898;SDS011;38763;53.096;6.062;2023-08-31T04:55:50;6.93;;;1.85;;
52898;SDS011;38763;53.096;6.062;2023-08-31T04:58:15;4.50;;;1.63;;
52898;SDS011;38763;53.096;6.062;2023-08-31T05:00:41;6.45;;;1.90;;
52898;SDS011;38763;53.096;6.062;2023-08-31T05:03:09;5.50;;;1.70;;
52898;SDS011;38763;53.096;6.062;2023-08-31T05:05:35;5.10;;;1.67;;
52898;SDS011;38763;53.096;6.062;2023-08-31T05:08:00;9.18;;;1.92;;
52898;SDS011;38763;53.096;6.062;2023-08-31T05:10:26;5.57;;;1.80;;
52898;SDS011;38763;53.096;6.062;2023-08-31T05:12:51;9.80;;;2.70;;
52898;SDS011;38763;53.096;6.062;2023-08-31T05:15:17;7.45;;;2.03;;
52898;SDS011;38763;53.096;6.062;2023-08-31T05:17:43;6.65;;;1.80;;
52898;SDS011;38763;53.096;6.062;2023-08-31T05:20:09;5.45;;;2.10;;
52898;SDS011;38763;53.096;6.062;2023-08-31T05:22:35;4.70;;;1.50;;
52898;SDS011;38763;53.096;6.062;2023-08-31T05:25:01;6.72;;;2.10;;
52898;SDS011;38763;53.096;6.062;2023-08-31T05:27:27;6.15;;;1.98;;
52898;SDS011;38763;53.096;6.062;2023-08-31T05:29:53;6.93;;;1.95;;
52898;SDS011;38763;53.096;6.062;2023-08-31T05:32:19;5.72;;;2.00;;
52898;SDS011;38763;53.096;6.062;2023-08-31T05:34:44;6.70;;;1.98;;
52898;SDS011;38763;53.096;6.062;2023-08-31T05:37:10;6.80;;;2.10;;
52898;SDS011;38763;53.096;6.062;2023-08-31T05:39:35;4.88;;;1.65;;
52898;SDS011;38763;53.096;6.062;2023-08-31T05:42:01;5.45;;;1.90;;
52898;SDS011;38763;53.096;6.062;2023-08-31T05:44:27;7.68;;;2.22;;
52898;SDS011;38763;53.096;6.062;2023-08-31T05:46:52;8.88;;;2.20;;
52898;SDS011;38763;53.096;6.062;2023-08-31T05:49:18;7.00;;;2.63;;
52898;SDS011;38763;53.096;6.062;2023-08-31T05:51:44;6.47;;;2.20;;
52898;SDS011;38763;53.096;6.062;2023-08-31T05:54:09;4.15;;;2.38;;
52898;SDS011;38763;53.096;6.062;2023-08-31T05:56:38;5.05;;;2.22;;
52898;SDS011;38763;53.096;6.062;2023-08-31T05:59:05;5.82;;;2.60;;
52898;SDS011;38763;53.096;6.062;2023-08-31T06:01:32;6.60;;;2.40;;
52898;SDS011;38763;53.096;6.062;2023-08-31T06:03:58;7.45;;;2.30;;
52898;SDS011;38763;53.096;6.062;2023-08-31T06:06:24;5.43;;;2.42;;
52898;SDS011;38763;53.096;6.062;2023-08-31T06:08:50;8.65;;;2.25;;
52898;SDS011;38763;53.096;6.062;2023-08-31T06:11:15;7.50;;;2.63;;
52898;SDS011;38763;53.096;6.062;2023-08-31T06:13:41;5.85;;;2.30;;
52898;SDS011;38763;53.096;6.062;2023-08-31T06:16:07;7.88;;;2.28;;
52898;SDS011;38763;53.096;6.062;2023-08-31T06:18:32;6.85;;;2.10;;
52898;SDS011;38763;53.096;6.062;2023-08-31T06:20:58;7.28;;;2.20;;
52898;SDS011;38763;53.096;6.062;2023-08-31T06:23:24;7.22;;;2.30;;
52898;SDS011;38763;53.096;6.062;2023-08-31T06:25:49;6.10;;;2.20;;
52898;SDS011;38763;53.096;6.062;2023-08-31T06:28:15;6.50;;;2.05;;
52898;SDS011;38763;53.096;6.062;2023-08-31T06:30:41;8.23;;;2.55;;
52898;SDS011;38763;53.096;6.062;2023-08-31T06:33:11;6.63;;;1.88;;
52898;SDS011;38763;53.096;6.062;2023-08-31T06:35:38;8.52;;;2.47;;
52898;SDS011;38763;53.096;6.062;2023-08-31T06:38:04;5.90;;;1.98;;
52898;SDS011;38763;53.096;6.062;2023-08-31T06:40:29;6.28;;;1.98;;
52898;SDS011;38763;53.096;6.062;2023-08-31T06:42:55;6.20;;;1.60;;
52898;SDS011;38763;53.096;6.062;2023-08-31T06:45:21;6.28;;;1.90;;
52898;SDS011;38763;53.096;6.062;2023-08-31T06:47:46;6.40;;;1.80;;
52898;SDS011;38763;53.096;6.062;2023-08-31T06:50:12;7.68;;;1.80;;
52898;SDS011;38763;53.096;6.062;2023-08-31T06:52:37;7.68;;;2.08;;
52898;SDS011;38763;53.096;6.062;2023-08-31T06:55:03;4.65;;;1.52;;
52898;SDS011;38763;53.096;6.062;2023-08-31T06:57:31;7.18;;;1.60;;
52898;SDS011;38763;53.096;6.062;2023-08-31T06:59:56;5.30;;;1.42;;
52898;SDS011;38763;53.096;6.062;2023-08-31T07:02:22;3.95;;;1.40;;
52898;SDS011;38763;53.096;6.062;2023-08-31T07:04:50;5.80;;;1.40;;
52898;SDS011;38763;53.096;6.062;2023-08-31T07:07:17;4.53;;;1.42;;
52898;SDS011;38763;53.096;6.062;2023-08-31T07:09:43;9.48;;;1.52;;
52898;SDS011;38763;53.096;6.062;2023-08-31T07:12:10;2.90;;;1.30;;
52898;SDS011;38763;53.096;6.062;2023-08-31T07:14:37;6.00;;;1.40;;
52898;SDS011;38763;53.096;6.062;2023-08-31T07:17:03;6.85;;;1.42;;
52898;SDS011;38763;53.096;6.062;2023-08-31T07:19:29;6.38;;;1.55;;
52898;SDS011;38763;53.096;6.062;2023-08-31T07:21:54;4.90;;;1.20;;
52898;SDS011;38763;53.096;6.062;2023-08-31T07:24:20;2.85;;;1.27;;
52898;SDS011;38763;53.096;6.062;2023-08-31T07:26:46;4.05;;;1.00;;
52898;SDS011;38763;53.096;6.062;2023-08-31T07:29:12;3.80;;;1.30;;
52898;SDS011;38763;53.096;6.062;2023-08-31T07:31:38;4.55;;;1.00;;
52898;SDS011;38763;53.096;6.062;2023-08-31T07:34:04;3.90;;;1.13;;
52898;SDS011;38763;53.096;6.062;2023-08-31T07:36:30;4.60;;;1.10;;
52898;SDS011;38763;53.096;6.062;2023-08-31T07:38:55;3.88;;;1.05;;
52898;SDS011;38763;53.096;6.062;2023-08-31T07:41:21;4.93;;;1.10;;
52898;SDS011;38763;53.096;6.062;2023-08-31T07:43:47;6.30;;;1.00;;
52898;SDS011;38763;53.096;6.062;2023-08-31T07:46:14;2.30;;;1.00;;
52898;SDS011;38763;53.096;6.062;2023-08-31T07:48:41;3.38;;;0.90;;
52898;SDS011;38763;53.096;6.062;2023-08-31T07:51:07;3.38;;;1.02;;
52898;SDS011;38763;53.096;6.062;2023-08-31T07:53:33;5.60;;;1.48;;
52898;SDS011;38763;53.096;6.062;2023-08-31T07:55:58;4.30;;;1.00;;
52898;SDS011;38763;53.096;6.062;2023-08-31T07:58:24;3.45;;;0.80;;
52898;SDS011;38763;53.096;6.062;2023-08-31T08:00:53;3.58;;;0.68;;
52898;SDS011;38763;53.096;6.062;2023-08-31T08:03:22;2.67;;;0.60;;
52898;SDS011;38763;53.096;6.062;2023-08-31T08:05:48;5.53;;;0.85;;
52898;SDS011;38763;53.096;6.062;2023-08-31T08:08:14;3.83;;;0.52;;
52898;SDS011;38763;53.096;6.062;2023-08-31T08:10:40;2.80;;;0.60;;
52898;SDS011;38763;53.096;6.062;2023-08-31T08:13:06;2.90;;;0.75;;
52898;SDS011;38763;53.096;6.062;2023-08-31T08:15:31;3.15;;;0.77;;
52898;SDS011;38763;53.096;6.062;2023-08-31T08:17:57;2.92;;;0.50;;
52898;SDS011;38763;53.096;6.062;2023-08-31T08:20:23;4.95;;;0.90;;
52898;SDS011;38763;53.096;6.062;2023-08-31T08:22:49;2.30;;;0.60;;
52898;SDS011;38763;53.096;6.062;2023-08-31T08:25:19;1.85;;;0.65;;
52898;SDS011;38763;53.096;6.062;2023-08-31T08:27:45;3.75;;;0.75;;
52898;SDS011;38763;53.096;6.062;2023-08-31T08:30:12;7.55;;;1.30;;
52898;SDS011;38763;53.096;6.062;2023-08-31T08:32:38;4.57;;;1.10;;
52898;SDS011;38763;53.096;6.062;2023-08-31T08:35:04;4.18;;;1.00;;
52898;SDS011;38763;53.096;6.062;2023-08-31T08:37:30;3.95;;;0.80;;
52898;SDS011;38763;53.096;6.062;2023-08-31T08:39:58;2.92;;;0.98;;
52898;SDS011;38763;53.096;6.062;2023-08-31T08:42:24;3.63;;;0.95;;
52898;SDS011;38763;53.096;6.062;2023-08-31T08:44:50;3.65;;;1.17;;
52898;SDS011;38763;53.096;6.062;2023-08-31T08:47:17;6.65;;;1.20;;
52898;SDS011;38763;53.096;6.062;2023-08-31T08:49:43;3.45;;;1.20;;
52898;SDS011;38763;53.096;6.062;2023-08-31T08:52:09;5.75;;;1.00;;
52898;SDS011;38763;53.096;6.062;2023-08-31T08:54:36;1.38;;;0.80;;
52898;SDS011;38763;53.096;6.062;2023-08-31T08:57:02;3.92;;;1.00;;
52898;SDS011;38763;53.096;6.062;2023-08-31T08:59:30;3.80;;;0.98;;
52898;SDS011;38763;53.096;6.062;2023-08-31T09:01:56;4.75;;;1.02;;
52898;SDS011;38763;53.096;6.062;2023-08-31T09:04:22;3.92;;;1.00;;
52898;SDS011;38763;53.096;6.062;2023-08-31T09:06:50;4.50;;;1.05;;
52898;SDS011;38763;53.096;6.062;2023-08-31T09:09:16;4.90;;;0.90;;
52898;SDS011;38763;53.096;6.062;2023-08-31T09:11:42;3.47;;;0.90;;
52898;SDS011;38763;53.096;6.062;2023-08-31T09:14:18;4.53;;;0.82;;
52898;SDS011;38763;53.096;6.062;2023-08-31T09:16:46;1.17;;;0.60;;
52898;SDS011;38763;53.096;6.062;2023-08-31T09:19:23;4.32;;;1.00;;
52898;SDS011;38763;53.096;6.062;2023-08-31T09:21:50;3.03;;;0.70;;
52898;SDS011;38763;53.096;6.062;2023-08-31T09:24:16;3.20;;;0.80;;
52898;SDS011;38763;53.096;6.062;2023-08-31T09:26:53;3.70;;;0.60;;
52898;SDS011;38763;53.096;6.062;2023-08-31T09:29:20;3.33;;;0.88;;
52898;SDS011;38763;53.096;6.062;2023-08-31T09:31:46;3.60;;;0.90;;
52898;SDS011;38763;53.096;6.062;2023-08-31T09:34:12;4.07;;;0.82;;
52898;SDS011;38763;53.096;6.062;2023-08-31T09:36:42;2.05;;;0.60;;
52898;SDS011;38763;53.096;6.062;2023-08-31T09:39:09;5.03;;;0.80;;
52898;SDS011;38763;53.096;6.062;2023-08-31T09:41:51;4.05;;;0.70;;
52898;SDS011;38763;53.096;6.062;2023-08-31T09:44:20;2.53;;;0.80;;
52898;SDS011;38763;53.096;6.062;2023-08-31T09:46:46;4.13;;;0.80;;
52898;SDS011;38763;53.096;6.062;2023-08-31T09:49:13;4.22;;;0.90;;
52898;SDS011;38763;53.096;6.062;2023-08-31T09:51:41;4.30;;;0.95;;
52898;SDS011;38763;53.096;6.062;2023-08-31T09:54:15;4.10;;;0.90;;
52898;SDS011;38763;53.096;6.062;2023-08-31T09:56:42;2.70;;;0.60;;
52898;SDS011;38763;53.096;6.062;2023-08-31T09:59:12;4.18;;;0.70;;
52898;SDS011;38763;53.096;6.062;2023-08-31T10:01:39;2.33;;;0.70;;
52898;SDS011;38763;53.096;6.062;2023-08-31T10:04:06;3.60;;;0.73;;
52898;SDS011;38763;53.096;6.062;2023-08-31T10:06:37;3.28;;;0.80;;
52898;SDS011;38763;53.096;6.062;2023-08-31T10:09:04;3.30;;;0.70;;
52898;SDS011;38763;53.096;6.062;2023-08-31T10:11:30;3.95;;;0.70;;
52898;SDS011;38763;53.096;6.062;2023-08-31T10:13:57;5.32;;;0.88;;
52898;SDS011;38763;53.096;6.062;2023-08-31T10:16:26;3.58;;;0.98;;
52898;SDS011;38763;53.096;6.062;2023-08-31T10:18:53;1.83;;;0.80;;
52898;SDS011;38763;53.096;6.062;2023-08-31T10:21:20;2.58;;;0.70;;
52898;SDS011;38763;53.096;6.062;2023-08-31T10:23:50;2.78;;;0.70;;
52898;SDS011;38763;53.096;6.062;2023-08-31T10:26:23;4.95;;;0.82;;
52898;SDS011;38763;53.096;6.062;2023-08-31T10:28:58;1.85;;;0.80;;
52898;SDS011;38763;53.096;6.062;2023-08-31T10:31:28;2.50;;;0.80;;
52898;SDS011;38763;53.096;6.062;2023-08-31T10:39:17;3.97;;;0.70;;
52898;SDS011;38763;53.096;6.062;2023-08-31T10:41:53;3.55;;;0.80;;
52898;SDS011;38763;53.096;6.062;2023-08-31T10:44:22;3.67;;;0.75;;
52898;SDS011;38763;53.096;6.062;2023-08-31T10:46:49;4.47;;;0.95;;
52898;SDS011;38763;53.096;6.062;2023-08-31T10:49:16;4.93;;;1.05;;
52898;SDS011;38763;53.096;6.062;2023-08-31T10:51:45;2.72;;;0.80;;
52898;SDS011;38763;53.096;6.062;2023-08-31T11:02:10;4.43;;;0.90;;
52898;SDS011;38763;53.096;6.062;2023-08-31T11:04:53;7.57;;;1.08;;
52898;SDS011;38763;53.096;6.062;2023-08-31T11:07:24;4.35;;;1.00;;
52898;SDS011;38763;53.096;6.062;2023-08-31T11:09:50;3.58;;;1.33;;
52898;SDS011;38763;53.096;6.062;2023-08-31T11:12:16;2.88;;;0.80;;
52898;SDS011;38763;53.096;6.062;2023-08-31T11:14:42;1.73;;;0.60;;
52898;SDS011;38763;53.096;6.062;2023-08-31T11:17:08;3.67;;;0.77;;
52898;SDS011;38763;53.096;6.062;2023-08-31T11:19:35;5.93;;;0.77;;
52898;SDS011;38763;53.096;6.062;2023-08-31T11:22:01;2.47;;;0.90;;
52898;SDS011;38763;53.096;6.062;2023-08-31T11:24:28;3.60;;;0.73;;
52898;SDS011;38763;53.096;6.062;2023-08-31T11:26:58;3.97;;;0.65;;
52898;SDS011;38763;53.096;6.062;2023-08-31T11:29:24;3.08;;;0.80;;
52898;SDS011;38763;53.096;6.062;2023-08-31T11:31:50;3.08;;;0.80;;
52898;SDS011;38763;53.096;6.062;2023-08-31T11:34:16;3.33;;;1.10;;
52898;SDS011;38763;53.096;6.062;2023-08-31T11:36:44;5.40;;;1.15;;
52898;SDS011;38763;53.096;6.062;2023-08-31T11:39:12;5.35;;;1.02;;
52898;SDS011;38763;53.096;6.062;2023-08-31T11:41:38;2.15;;;0.80;;
52898;SDS011;38763;53.096;6.062;2023-08-31T11:44:08;3.67;;;0.80;;
52898;SDS011;38763;53.096;6.062;2023-08-31T11:46:35;3.80;;;0.98;;
52898;SDS011;38763;53.096;6.062;2023-08-31T11:49:02;3.88;;;0.90;;
52898;SDS011;38763;53.096;6.062;2023-08-31T11:51:31;3.10;;;0.90;;
52898;SDS011;38763;53.096;6.062;2023-08-31T11:53:59;2.75;;;0.80;;
52898;SDS011;38763;53.096;6.062;2023-08-31T11:56:27;2.80;;;0.95;;
52898;SDS011;38763;53.096;6.062;2023-08-31T11:59:12;6.07;;;0.90;;
52898;SDS011;38763;53.096;6.062;2023-08-31T12:01:40;2.67;;;1.10;;
52898;SDS011;38763;53.096;6.062;2023-08-31T12:04:16;4.20;;;0.85;;
52898;SDS011;38763;53.096;6.062;2023-08-31T12:06:46;3.42;;;0.93;;
52898;SDS011;38763;53.096;6.062;2023-08-31T12:09:15;3.83;;;1.00;;
52898;SDS011;38763;53.096;6.062;2023-08-31T12:11:41;2.72;;;0.85;;
52898;SDS011;38763;53.096;6.062;2023-08-31T12:14:27;3.92;;;1.08;;
52898;SDS011;38763;53.096;6.062;2023-08-31T12:16:59;2.45;;;0.90;;
52898;SDS011;38763;53.096;6.062;2023-08-31T12:19:28;3.50;;;1.08;;
52898;SDS011;38763;53.096;6.062;2023-08-31T12:21:56;7.15;;;1.10;;
52898;SDS011;38763;53.096;6.062;2023-08-31T12:24:22;5.60;;;1.02;;
52898;SDS011;38763;53.096;6.062;2023-08-31T12:26:51;7.13;;;1.25;;
52898;SDS011;38763;53.096;6.062;2023-08-31T12:29:19;3.42;;;1.00;;
52898;SDS011;38763;53.096;6.062;2023-08-31T12:31:44;5.15;;;1.33;;
52898;SDS011;38763;53.096;6.062;2023-08-31T12:34:10;9.65;;;1.20;;
52898;SDS011;38763;53.096;6.062;2023-08-31T12:36:36;7.43;;;1.17;;
52898;SDS011;38763;53.096;6.062;2023-08-31T12:39:03;3.85;;;0.90;;
52898;SDS011;38763;53.096;6.062;2023-08-31T12:41:32;4.68;;;1.10;;
52898;SDS011;38763;53.096;6.062;2023-08-31T12:43:58;4.28;;;1.00;;
52898;SDS011;38763;53.096;6.062;2023-08-31T12:46:24;3.28;;;0.85;;
52898;SDS011;38763;53.096;6.062;2023-08-31T12:48:50;4.22;;;0.93;;
52898;SDS011;38763;53.096;6.062;2023-08-31T12:51:17;3.20;;;0.80;;
52898;SDS011;38763;53.096;6.062;2023-08-31T12:53:43;4.75;;;1.02;;
52898;SDS011;38763;53.096;6.062;2023-08-31T12:56:09;3.53;;;1.25;;
52898;SDS011;38763;53.096;6.062;2023-08-31T12:58:36;4.40;;;1.25;;
52898;SDS011;38763;53.096;6.062;2023-08-31T13:01:02;5.45;;;1.30;;
52898;SDS011;38763;53.096;6.062;2023-08-31T13:03:28;5.13;;;1.30;;
52898;SDS011;38763;53.096;6.062;2023-08-31T13:05:54;7.05;;;1.20;;
52898;SDS011;38763;53.096;6.062;2023-08-31T13:08:19;9.18;;;1.60;;
52898;SDS011;38763;53.096;6.062;2023-08-31T13:10:54;6.00;;;1.23;;
52898;SDS011;38763;53.096;6.062;2023-08-31T13:13:20;7.68;;;1.48;;
52898;SDS011;38763;53.096;6.062;2023-08-31T13:15:47;6.25;;;1.60;;
52898;SDS011;38763;53.096;6.062;2023-08-31T13:18:13;6.00;;;1.30;;
52898;SDS011;38763;53.096;6.062;2023-08-31T13:20:39;6.55;;;1.30;;
52898;SDS011;38763;53.096;6.062;2023-08-31T13:23:04;6.13;;;1.40;;
52898;SDS011;38763;53.096;6.062;2023-08-31T13:25:31;5.22;;;0.98;;
52898;SDS011;38763;53.096;6.062;2023-08-31T13:27:57;7.55;;;1.55;;
52898;SDS011;38763;53.096;6.062;2023-08-31T13:30:23;4.78;;;1.30;;
52898;SDS011;38763;53.096;6.062;2023-08-31T13:32:48;7.90;;;1.42;;
52898;SDS011;38763;53.096;6.062;2023-08-31T13:35:15;4.95;;;1.45;;
52898;SDS011;38763;53.096;6.062;2023-08-31T13:37:41;6.80;;;1.17;;
52898;SDS011;38763;53.096;6.062;2023-08-31T13:40:07;6.65;;;1.10;;
52898;SDS011;38763;53.096;6.062;2023-08-31T13:42:35;3.72;;;1.00;;
52898;SDS011;38763;53.096;6.062;2023-08-31T13:45:07;3.92;;;1.10;;
52898;SDS011;38763;53.096;6.062;2023-08-31T13:47:33;4.40;;;1.15;;
52898;SDS011;38763;53.096;6.062;2023-08-31T13:49:59;4.50;;;1.10;;
52898;SDS011;38763;53.096;6.062;2023-08-31T13:52:25;6.80;;;1.13;;
52898;SDS011;38763;53.096;6.062;2023-08-31T13:54:51;6.70;;;1.40;;
52898;SDS011;38763;53.096;6.062;2023-08-31T13:57:17;5.88;;;1.20;;
52898;SDS011;38763;53.096;6.062;2023-08-31T13:59:43;6.05;;;1.52;;
52898;SDS011;38763;53.096;6.062;2023-08-31T14:02:09;5.72;;;1.17;;
52898;SDS011;38763;53.096;6.062;2023-08-31T14:04:35;5.95;;;1.25;;
52898;SDS011;38763;53.096;6.062;2023-08-31T14:07:01;3.75;;;1.20;;
52898;SDS011;38763;53.096;6.062;2023-08-31T14:09:30;8.20;;;1.88;;
52898;SDS011;38763;53.096;6.062;2023-08-31T14:11:56;8.13;;;1.20;;
52898;SDS011;38763;53.096;6.062;2023-08-31T14:14:22;4.85;;;1.23;;
52898;SDS011;38763;53.096;6.062;2023-08-31T14:16:49;4.53;;;1.05;;
52898;SDS011;38763;53.096;6.062;2023-08-31T14:19:14;3.33;;;1.05;;
52898;SDS011;38763;53.096;6.062;2023-08-31T14:21:40;4.35;;;1.15;;
52898;SDS011;38763;53.096;6.062;2023-08-31T14:24:06;4.75;;;1.25;;
52898;SDS011;38763;53.096;6.062;2023-08-31T14:26:32;5.90;;;1.38;;
52898;SDS011;38763;53.096;6.062;2023-08-31T14:28:58;7.45;;;1.20;;
52898;SDS011;38763;53.096;6.062;2023-08-31T14:31:23;2.25;;;0.80;;
52898;SDS011;38763;53.096;6.062;2023-08-31T14:33:49;4.93;;;1.08;;
52898;SDS011;38763;53.096;6.062;2023-08-31T14:36:17;4.30;;;1.10;;
52898;SDS011;38763;53.096;6.062;2023-08-31T14:38:43;4.22;;;1.20;;
52898;SDS011;38763;53.096;6.062;2023-08-31T14:41:10;4.22;;;1.08;;
52898;SDS011;38763;53.096;6.062;2023-08-31T14:43:36;7.70;;;1.45;;
52898;SDS011;38763;53.096;6.062;2023-08-31T14:46:02;6.85;;;1.27;;
52898;SDS011;38763;53.096;6.062;2023-08-31T14:48:29;9.70;;;1.20;;
52898;SDS011;38763;53.096;6.062;2023-08-31T14:50:55;7.88;;;1.20;;
52898;SDS011;38763;53.096;6.062;2023-08-31T14:53:23;5.45;;;1.25;;
52898;SDS011;38763;53.096;6.062;2023-08-31T14:55:49;6.05;;;1.25;;
52898;SDS011;38763;53.096;6.062;2023-08-31T14:58:15;9.10;;;1.60;;
52898;SDS011;38763;53.096;6.062;2023-08-31T15:00:41;9.45;;;1.35;;
52898;SDS011;38763;53.096;6.062;2023-08-31T15:03:06;6.20;;;1.30;;
52898;SDS011;38763;53.096;6.062;2023-08-31T15:05:32;8.40;;;1.35;;
52898;SDS011;38763;53.096;6.062;2023-08-31T15:07:59;6.70;;;1.30;;
52898;SDS011;38763;53.096;6.062;2023-08-31T15:10:26;5.78;;;1.52;;
52898;SDS011;38763;53.096;6.062;2023-08-31T15:12:52;4.78;;;1.30;;